Date,TemperatureHighF,TemperatureAvgF,TemperatureLowF,DewpointHighF,DewpointAvgF,DewpointLowF,HumidityHigh,HumidityAvg,HumidityLow,PressureMaxIn,PressureMinIn,WindSpeedMaxMPH,WindSpeedAvgMPH,GustSpeedMaxMPH,PrecipitationSumIn
2013-7-1,52,50,48,49,48,45,96,92,87,29.78,29.51,14,4,22,0.00
2013-7-2,56,51,47,48,46,45,93,85,73,29.87,29.56,11,6,19,0.00
2013-7-3,54,51,49,47,46,46,91,83,75,29.99,29.87,18,8,28,0.00
2013-7-4,53,51,48,48,47,46,92,87,81,30.03,29.93,14,5,20,0.00
2013-7-5,54,50,48,50,48,46,95,91,83,30.04,29.96,8,3,12,0.00
2013-7-6,56,52,48,50,48,47,94,89,81,29.98,29.66,20,4,23,0.00
2013-7-7,50,48,46,49,46,45,97,94,88,29.67,29.57,8,2,10,0.00
2013-7-8,57,49,40,50,45,39,97,86,69,29.83,29.67,12,3,15,0.00
2013-7-9,61,53,44,49,46,41,93,78,65,30.04,29.83,11,4,22,0.00
2013-7-10,65,56,48,52,49,45,92,76,60,30.04,29.90,9,3,11,0.00
2013-7-11,65,55,48,51,49,46,91,81,59,29.91,29.88,8,2,11,0.00
2013-7-12,66,56,47,51,49,45,93,77,55,29.93,29.90,9,2,11,0.00
2013-7-13,61,54,50,54,50,47,93,86,73,30.16,29.93,13,5,23,0.00
2013-7-14,60,54,50,51,50,47,93,86,72,30.29,30.16,13,5,19,0.00
2013-7-15,58,53,50,52,50,48,95,89,81,30.30,30.21,10,4,14,0.00
2013-7-16,66,60,51,56,53,49,95,79,66,30.21,30.12,15,4,22,0.00
2013-7-17,68,64,57,59,57,54,90,78,72,30.13,30.07,15,6,23,0.00
2013-7-18,71,65,57,60,58,53,92,78,69,30.18,30.09,15,5,21,0.00
2013-7-19,64,60,58,56,52,50,79,74,67,30.24,30.16,26,11,33,0.00
2013-7-20,64,60,56,52,50,48,82,71,58,30.17,30.05,23,8,32,0.00
2013-7-21,66,58,50,51,48,46,87,71,51,30.05,29.95,10,3,15,0.00
2013-7-22,71,60,51,51,48,45,84,66,43,30.06,29.97,8,2,9,0.00
2013-7-23,63,55,51,54,50,46,91,82,69,30.06,30.01,8,2,14,0.00
2013-7-24,67,58,50,56,52,48,96,82,67,30.01,29.92,9,3,14,0.00
2013-7-25,73,63,56,60,56,53,88,78,61,30.00,29.92,15,5,24,0.00
2013-7-26,62,54,51,56,52,49,96,91,80,30.28,30.00,13,4,22,0.00
2013-7-27,59,53,48,56,52,47,98,94,85,30.33,30.27,9,2,13,0.00
2013-7-28,63,55,50,56,52,49,97,91,75,30.27,30.14,8,2,11,0.00
2013-7-29,67,56,51,58,53,50,96,88,72,30.15,30.10,8,2,12,0.00
2013-7-30,66,57,51,56,53,50,96,86,68,30.18,30.14,13,3,13,0.00
2013-7-31,64,60,55,56,54,52,90,80,71,30.17,30.09,18,6,25,0.00